Time;durP1;ratioP1;P1;durP2;ratioP2;P2;SDS_P1;SDS_P2;PMS_P1;PMS_P2;Temp;Humidity;BMP_temperature;BMP_pressure;BME280_temperature;BME280_humidity;BME280_pressure;Samples;Min_cycle;Max_cycle;Signal;HPM_P1;HPM_P2
2022/01/30 00:00:34;;;;;;;6.57;6.07;;;;;;;4.73;100.00;100405.13;5014899;28;20470;-80
2022/01/30 00:03:08;;;;;;;6.55;6.05;;;;;;;4.70;100.00;100408.31;5008990;28;20042;-81
2022/01/30 00:05:36;;;;;;;6.57;6.07;;;;;;;4.68;100.00;100405.03;5011356;28;20060;-80
2022/01/30 00:08:09;;;;;;;5.90;5.50;;;;;;;4.71;100.00;100416.16;5007092;28;20474;-80
2022/01/30 00:10:43;;;;;;;5.95;5.55;;;;;;;4.42;100.00;100401.97;5010865;28;20050;-80
2022/01/30 00:13:15;;;;;;;6.82;6.32;;;;;;;4.26;100.00;100435.94;5001116;28;20041;-80
2022/01/30 00:15:53;;;;;;;8.05;7.47;;;;;;;4.06;100.00;100410.28;5006461;28;20049;-80
2022/01/30 00:18:41;;;;;;;;;;;;;;;4.06;100.00;100447.16;5020285;28;20061;-81
2022/01/30 00:21:28;;;;;;;10.68;9.98;;;;;;;3.84;100.00;100447.84;5027951;28;19928;-80
2022/01/30 00:24:05;;;;;;;16.50;15.50;;;;;;;3.64;100.00;100442.09;5004956;28;20053;-80
2022/01/30 00:26:36;;;;;;;18.67;17.58;;;;;;;3.45;100.00;100418.03;5009170;28;20054;-80
2022/01/30 00:29:09;;;;;;;21.25;20.05;;;;;;;3.49;100.00;100413.00;5008690;28;20056;-81
2022/01/30 00:31:39;;;;;;;26.70;25.20;;;;;;;3.63;100.00;100408.94;5011573;28;20053;-80
2022/01/30 00:34:07;;;;;;;23.05;21.75;;;;;;;3.69;100.00;100426.84;5009484;28;20041;-81
2022/01/30 00:36:41;;;;;;;26.77;25.27;;;;;;;3.78;100.00;100400.34;5008604;28;20049;-80
2022/01/30 00:39:09;;;;;;;25.55;24.13;;;;;;;3.78;100.00;100399.53;5007090;28;20053;-81
2022/01/30 00:41:37;;;;;;;26.58;25.08;;;;;;;3.94;100.00;100403.34;5007720;28;20052;-80
2022/01/30 00:44:10;;;;;;;23.42;22.13;;;;;;;3.90;100.00;100405.69;5011388;28;20485;-80
2022/01/30 00:46:45;;;;;;;24.08;22.67;;;;;;;4.09;100.00;100417.88;5010484;28;20065;-80
2022/01/30 00:49:19;;;;;;;21.33;20.13;;;;;;;4.09;100.00;100417.06;5015588;28;20056;-80
2022/01/30 00:51:47;;;;;;;21.17;19.98;;;;;;;4.17;100.00;100440.06;5010780;28;20054;-80
2022/01/30 00:54:20;;;;;;;20.20;19.00;;;;;;;4.23;100.00;100431.84;5009991;28;20049;-80
2022/01/30 00:56:54;;;;;;;16.70;15.70;;;;;;;4.31;100.00;100387.53;5011416;28;20056;-82
2022/01/30 00:59:27;;;;;;;10.93;10.23;;;;;;;4.40;100.00;100407.59;5007332;28;20080;-81
2022/01/30 01:02:02;;;;;;;11.50;10.80;;;;;;;4.32;100.00;100405.31;5008073;28;20054;-80
2022/01/30 01:04:30;;;;;;;8.48;7.88;;;;;;;4.35;100.00;100421.00;5004503;28;20054;-80
2022/01/30 01:06:59;;;;;;;8.95;8.35;;;;;;;4.31;100.00;100417.16;5010750;28;20049;-80
2022/01/30 01:09:37;;;;;;;6.60;6.10;;;;;;;4.37;100.00;100431.53;5010112;28;20382;-80
2022/01/30 01:12:36;;;;;;;7.05;6.55;;;;;;;4.35;100.00;100439.88;5009832;28;20069;-82
2022/01/30 01:21:00;;;;;;;6.00;5.60;;;;;;;4.33;100.00;100444.66;5010609;28;20725;-82
2022/01/30 01:23:38;;;;;;;6.75;6.25;;;;;;;4.29;100.00;100451.59;5002337;28;20065;-81
2022/01/30 01:26:11;;;;;;;5.93;5.53;;;;;;;4.22;100.00;100459.81;5013145;28;20046;-80
2022/01/30 01:28:40;;;;;;;4.93;4.63;;;;;;;4.20;100.00;100451.19;5008762;28;20049;-80
2022/01/30 01:31:14;;;;;;;5.43;5.03;;;;;;;4.28;100.00;100450.00;5009176;28;20045;-81
2022/01/30 01:34:03;;;;;;;5.18;4.80;;;;;;;4.28;100.00;100450.00;5008101;28;20734;-81
2022/01/30 01:36:31;;;;;;;5.20;4.80;;;;;;;4.29;100.00;100462.38;5010303;28;20065;-80
2022/01/30 01:39:05;;;;;;;4.82;4.53;;;;;;;4.30;100.00;100445.16;5040040;28;20046;-81
2022/01/30 01:41:38;;;;;;;4.28;3.97;;;;;;;4.33;100.00;100454.63;5021025;28;20049;-81
2022/01/30 01:44:16;;;;;;;3.60;3.40;;;;;;;4.31;100.00;100449.50;5010458;28;20056;-81
2022/01/30 01:46:49;;;;;;;3.70;3.50;;;;;;;4.34;100.00;100434.72;5008531;28;20430;-80
2022/01/30 01:49:28;;;;;;;3.58;3.38;;;;;;;4.13;100.00;100465.84;5008838;28;20046;-81
2022/01/30 01:52:18;;;;;;;3.60;3.40;;;;;;;4.12;100.00;100456.97;5011003;28;20045;-81
2022/01/30 01:54:54;;;;;;;3.50;3.30;;;;;;;4.11;100.00;100444.56;5011000;28;20049;-80
2022/01/30 01:57:29;;;;;;;4.03;3.73;;;;;;;4.16;100.00;100465.41;5009352;28;20055;-80
2022/01/30 02:00:28;;;;;;;4.07;3.78;;;;;;;4.24;100.00;100470.38;5013603;28;21370;-81
2022/01/30 02:03:02;;;;;;;4.00;3.70;;;;;;;4.16;100.00;100470.78;5008904;28;20055;-80
2022/01/30 02:05:39;;;;;;;5.32;4.93;;;;;;;4.06;100.00;100431.84;5021847;28;20077;-80
2022/01/30 02:08:33;;;;;;;5.18;4.80;;;;;;;3.96;100.00;100487.38;5017819;28;20042;-79
2022/01/30 02:11:05;;;;;;;5.60;5.20;;;;;;;3.94;100.00;100476.03;5013803;28;20046;-80
2022/01/30 02:13:56;;;;;;;6.18;5.78;;;;;;;3.91;100.00;100455.78;5027482;28;20549;-81
2022/01/30 02:25:28;;;;;;;4.03;3.72;;;;;;;3.95;100.00;100459.63;5013752;28;20061;-81
2022/01/30 02:28:08;;;;;;;3.53;3.33;;;;;;;3.88;100.00;100449.00;5023530;28;20054;-81
2022/01/30 02:30:48;;;;;;;4.10;3.80;;;;;;;3.77;100.00;100449.88;5024747;28;20046;-82
2022/01/30 02:33:21;;;;;;;4.60;4.30;;;;;;;3.73;100.00;100463.00;5007791;28;20054;-80
2022/01/30 02:35:54;;;;;;;4.57;4.28;;;;;;;3.69;100.00;100412.59;5010840;28;20054;-81
2022/01/30 02:38:29;;;;;;;4.72;4.43;;;;;;;3.65;100.00;100433.75;5012848;28;20053;-80
2022/01/30 02:41:03;;;;;;;5.10;4.75;;;;;;;3.64;100.00;100429.44;5011294;28;20049;-81
2022/01/30 02:43:57;;;;;;;4.53;4.22;;;;;;;3.70;100.00;100433.88;5013000;28;20046;-80
2022/01/30 02:46:33;;;;;;;3.63;3.42;;;;;;;3.80;100.00;100419.78;5011131;28;20049;-81
2022/01/30 02:49:27;;;;;;;4.07;3.78;;;;;;;3.86;100.00;100448.41;5050937;28;20061;-80
2022/01/30 02:52:04;;;;;;;2.92;2.72;;;;;;;3.87;100.00;100447.38;5007827;28;20406;-80
2022/01/30 02:54:33;;;;;;;2.92;2.72;;;;;;;3.88;100.00;100427.47;5011534;28;20050;-79
2022/01/30 02:57:07;;;;;;;2.15;2.05;;;;;;;4.00;100.00;100438.16;5011373;28;20049;-80
2022/01/30 02:59:41;;;;;;;2.30;2.20;;;;;;;4.01;100.00;100436.31;5009936;28;20045;-81
2022/01/30 03:02:14;;;;;;;2.15;2.05;;;;;;;4.13;100.00;100442.44;5021297;28;20526;-80
2022/01/30 03:04:48;;;;;;;1.98;1.88;;;;;;;4.10;100.00;100429.44;5015647;28;20394;-80
2022/01/30 03:07:21;;;;;;;1.70;1.60;;;;;;;4.15;100.00;100459.16;5019659;28;20057;-80
2022/01/30 03:09:59;;;;;;;1.70;1.60;;;;;;;4.11;100.00;100438.38;5026170;28;20064;-81
2022/01/30 03:12:32;;;;;;;1.98;1.88;;;;;;;4.01;100.00;100457.84;5011295;28;20045;-81
2022/01/30 03:15:06;;;;;;;1.60;1.50;;;;;;;4.08;100.00;100447.75;5011850;28;20042;-81
2022/01/30 03:17:41;;;;;;;1.70;1.60;;;;;;;4.15;100.00;100461.88;5025958;28;20091;-80
2022/01/30 03:20:14;;;;;;;1.45;1.40;;;;;;;4.16;100.00;100441.16;5023145;28;20046;-82
2022/01/30 03:22:47;;;;;;;1.70;1.60;;;;;;;4.21;100.00;100460.06;5016047;28;20050;-81
2022/01/30 03:25:22;;;;;;;1.30;1.30;;;;;;;4.28;100.00;100458.06;5010930;28;20069;-80
2022/01/30 03:27:56;;;;;;;1.40;1.38;;;;;;;4.28;100.00;100433.81;5043087;28;20060;-80
2022/01/30 03:30:34;;;;;;;1.70;1.60;;;;;;;4.32;100.00;100434.94;5007921;28;20057;-81
2022/01/30 03:33:26;;;;;;;1.60;1.50;;;;;;;4.35;100.00;100465.97;5034463;28;20060;-82
2022/01/30 03:35:59;;;;;;;1.35;1.30;;;;;;;4.38;100.00;100444.75;5011328;28;20532;-81
2022/01/30 03:38:34;;;;;;;1.25;1.25;;;;;;;4.43;100.00;100479.88;5014892;28;20045;-80
2022/01/30 03:41:09;;;;;;;0.90;0.90;;;;;;;4.45;100.00;100457.25;5010621;28;20054;-80
2022/01/30 03:43:42;;;;;;;0.90;0.90;;;;;;;4.45;100.00;100468.00;5006092;28;20050;-80
2022/01/30 03:46:18;;;;;;;0.90;0.90;;;;;;;4.49;100.00;100458.38;5008315;28;20052;-80
2022/01/30 03:48:52;;;;;;;0.90;0.90;;;;;;;4.50;100.00;100452.78;5010583;28;20064;-79
2022/01/30 03:51:30;;;;;;;0.82;0.82;;;;;;;4.45;100.00;100457.25;5023299;28;20509;-79
2022/01/30 03:54:17;;;;;;;0.82;0.82;;;;;;;4.50;100.00;100450.09;5040128;28;20061;-80
2022/01/30 03:56:51;;;;;;;0.80;0.80;;;;;;;4.46;100.00;100459.72;5009344;28;20053;-80
2022/01/30 03:59:28;;;;;;;0.73;0.73;;;;;;;4.53;100.00;100452.28;5009656;28;20050;-80
2022/01/30 04:02:02;;;;;;;0.60;0.60;;;;;;;4.67;100.00;100449.22;5010836;28;20046;-81
2022/01/30 04:04:35;;;;;;;0.80;0.80;;;;;;;4.56;100.00;100476.03;5023367;28;20049;-80
2022/01/30 04:07:09;;;;;;;0.70;0.70;;;;;;;4.54;100.00;100472.78;5040572;28;20042;-79
2022/01/30 04:09:56;;;;;;;0.70;0.70;;;;;;;4.55;100.00;100484.38;5010846;28;20061;-80
2022/01/30 04:12:38;;;;;;;0.80;0.80;;;;;;;4.38;100.00;100478.97;5009495;28;20061;-80
2022/01/30 04:15:12;;;;;;;0.80;0.80;;;;;;;4.29;100.00;100492.00;5007920;28;20069;-79
2022/01/30 04:18:09;;;;;;;;;;;;;;;4.36;100.00;100475.69;5017322;28;20045;-81
2022/01/30 04:21:11;;;;;;;0.80;0.80;;;;;;;4.36;100.00;100508.03;5009536;28;19925;-81
2022/01/30 04:23:57;;;;;;;0.90;0.90;;;;;;;4.44;100.00;100483.38;5017066;28;20061;-80
2022/01/30 04:26:48;;;;;;;0.82;0.82;;;;;;;4.45;100.00;100503.88;5005640;28;20494;-79
2022/01/30 04:29:41;;;;;;;0.88;0.88;;;;;;;4.48;100.00;100494.50;5005945;28;20053;-79
2022/01/30 04:32:29;;;;;;;0.80;0.80;;;;;;;4.47;100.00;100506.31;5010113;28;20061;-80
2022/01/30 04:35:21;;;;;;;0.70;0.70;;;;;;;4.46;100.00;100521.69;5009877;28;20505;-80
2022/01/30 04:38:11;;;;;;;0.80;0.80;;;;;;;4.47;100.00;100488.28;5008730;28;20046;-80
2022/01/30 04:53:17;;;;;;;1.17;1.17;;;;;;;3.80;100.00;100518.53;5015890;28;20494;-80
2022/01/30 04:59:39;;;;;;;1.50;1.40;;;;;;;3.91;100.00;100509.63;5026221;28;20061;-80
2022/01/30 05:02:41;;;;;;;1.00;1.00;;;;;;;3.96;100.00;100501.63;5011154;28;20054;-80
2022/01/30 05:05:44;;;;;;;1.13;1.13;;;;;;;3.97;100.00;100538.28;5017731;28;20053;-80
2022/01/30 05:08:28;;;;;;;0.90;0.90;;;;;;;4.15;100.00;100542.66;5009976;28;20060;-80
2022/01/30 05:11:33;;;;;;;1.00;1.00;;;;;;;4.26;100.00;100530.22;5014889;28;20148;-80
2022/01/30 05:14:33;;;;;;;1.00;1.00;;;;;;;4.22;100.00;100570.28;5020731;28;20057;-79
2022/01/30 05:17:27;;;;;;;1.00;1.00;;;;;;;4.30;100.00;100495.53;5015107;28;20053;-80
2022/01/30 05:20:07;;;;;;;0.90;0.90;;;;;;;4.28;100.00;100506.56;5012777;28;20042;-81
2022/01/30 05:22:52;;;;;;;0.90;0.90;;;;;;;4.22;100.00;100510.19;5009594;28;20057;-79
2022/01/30 05:25:38;;;;;;;0.90;0.90;;;;;;;4.22;100.00;100524.47;5008475;28;20058;-80
2022/01/30 05:28:14;;;;;;;0.77;0.77;;;;;;;4.22;100.00;100529.88;5026471;28;20056;-80
2022/01/30 05:31:00;;;;;;;0.70;0.70;;;;;;;4.21;100.00;100527.41;5018953;28;20494;-79
2022/01/30 05:33:44;;;;;;;0.80;0.80;;;;;;;4.18;100.00;100496.38;5011637;28;20418;-79
2022/01/30 05:36:44;;;;;;;0.85;0.85;;;;;;;4.09;100.00;100530.19;5030241;28;20050;-79
2022/01/30 05:39:36;;;;;;;0.95;0.95;;;;;;;4.16;100.00;100555.09;5026012;28;20064;-79
2022/01/30 05:42:42;;;;;;;0.80;0.80;;;;;;;4.17;100.00;100559.41;5016759;28;20054;-79
2022/01/30 05:45:36;;;;;;;0.80;0.80;;;;;;;4.21;100.00;100570.50;5010395;28;20053;-79
2022/01/30 05:48:19;;;;;;;0.80;0.80;;;;;;;4.24;100.00;100568.16;5013139;28;20142;-79
2022/01/30 05:51:12;;;;;;;0.82;0.82;;;;;;;4.19;100.00;100583.41;5018658;28;20550;-80
2022/01/30 05:53:54;;;;;;;0.90;0.90;;;;;;;4.22;100.00;100586.44;5021582;28;20060;-80
2022/01/30 05:56:33;;;;;;;0.90;0.90;;;;;;;4.18;100.00;100585.28;5009886;28;20473;-80
2022/01/30 05:59:16;;;;;;;0.80;0.80;;;;;;;4.25;100.00;100594.06;5010753;28;20057;-79
2022/01/30 06:02:04;;;;;;;0.82;0.82;;;;;;;4.19;100.00;100573.44;5010504;28;20049;-78
2022/01/30 06:04:32;;;;;;;0.80;0.80;;;;;;;4.17;100.00;100578.28;5009846;28;20050;-79
2022/01/30 06:07:09;;;;;;;0.90;0.90;;;;;;;4.15;100.00;100593.03;5010620;28;20050;-80
2022/01/30 06:09:43;;;;;;;0.80;0.80;;;;;;;4.22;100.00;100628.72;5009986;28;20057;-79
2022/01/30 06:12:16;;;;;;;0.80;0.80;;;;;;;4.23;100.00;100631.19;5007385;28;20050;-78
2022/01/30 06:14:51;;;;;;;0.70;0.70;;;;;;;4.20;100.00;100669.38;5009094;28;20057;-79
2022/01/30 06:17:24;;;;;;;0.63;0.63;;;;;;;4.19;100.00;100651.56;5008234;28;20062;-79
2022/01/30 06:19:57;;;;;;;0.70;0.70;;;;;;;4.15;100.00;100628.84;5011965;28;20061;-79
2022/01/30 06:22:32;;;;;;;0.60;0.60;;;;;;;4.13;100.00;100659.78;5016550;28;20042;-79
2022/01/30 06:25:24;;;;;;;0.70;0.70;;;;;;;4.17;100.00;100666.31;5014737;28;20076;-78
2022/01/30 06:28:15;;;;;;;0.70;0.70;;;;;;;4.20;100.00;100682.03;4998275;28;20521;-79
2022/01/30 06:31:07;;;;;;;0.68;0.68;;;;;;;4.23;100.00;100690.44;4997655;28;20080;-78
2022/01/30 06:33:54;;;;;;;0.70;0.70;;;;;;;4.19;100.00;100697.34;5011140;28;20486;-79
2022/01/30 06:36:40;;;;;;;0.80;0.80;;;;;;;4.15;100.00;100703.47;5011665;28;20068;-78
2022/01/30 06:39:40;;;;;;;0.73;0.73;;;;;;;4.28;100.00;100723.94;5011831;28;20054;-78
2022/01/30 06:42:20;;;;;;;0.70;0.70;;;;;;;4.29;100.00;100769.50;5017851;28;20490;-78
2022/01/30 06:45:12;;;;;;;0.77;0.77;;;;;;;4.23;100.00;100738.94;5019708;28;20068;-80
2022/01/30 06:48:17;;;;;;;0.70;0.70;;;;;;;4.20;100.00;100733.22;5046418;28;20065;-79
2022/01/30 06:51:04;;;;;;;0.90;0.90;;;;;;;4.14;100.00;100708.00;5023975;28;20072;-79
2022/01/30 06:53:57;;;;;;;0.80;0.80;;;;;;;4.07;100.00;100702.78;5019188;28;20066;-80
2022/01/30 06:57:04;;;;;;;0.80;0.80;;;;;;;4.11;100.00;100719.25;5019398;28;20061;-80
2022/01/30 06:59:56;;;;;;;0.70;0.70;;;;;;;4.13;100.00;100725.25;5018866;28;20045;-77
2022/01/30 07:03:05;;;;;;;0.70;0.70;;;;;;;4.18;100.00;100684.94;5050010;28;20049;-78
2022/01/30 07:05:56;;;;;;;0.70;0.70;;;;;;;4.11;100.00;100710.38;5014470;28;20053;-80
2022/01/30 07:08:34;;;;;;;0.60;0.60;;;;;;;4.10;100.00;100731.09;5012213;28;20065;-79
2022/01/30 07:11:08;;;;;;;0.70;0.70;;;;;;;3.97;100.00;100726.78;5013253;28;20052;-81
2022/01/30 07:13:42;;;;;;;0.70;0.70;;;;;;;4.00;100.00;100747.03;5008783;28;20050;-79
2022/01/30 07:16:16;;;;;;;0.60;0.60;;;;;;;3.98;100.00;100765.28;5013066;28;20034;-78
2022/01/30 07:18:49;;;;;;;0.60;0.60;;;;;;;4.08;100.00;100797.84;5013391;28;20057;-77
2022/01/30 07:21:19;;;;;;;0.60;0.60;;;;;;;4.19;100.00;100809.69;5012005;28;20056;-80
2022/01/30 07:23:52;;;;;;;0.60;0.60;;;;;;;4.22;100.00;100822.69;5009703;28;20482;-79
2022/01/30 07:26:25;;;;;;;0.60;0.60;;;;;;;4.23;100.00;100808.16;5011744;28;20061;-78
2022/01/30 07:28:54;;;;;;;0.60;0.60;;;;;;;4.21;100.00;100808.41;5010040;28;20058;-78
2022/01/30 07:31:28;;;;;;;0.60;0.60;;;;;;;4.21;100.00;100791.41;5013024;28;20042;-79
2022/01/30 07:34:01;;;;;;;0.70;0.70;;;;;;;4.22;100.00;100812.72;5011590;28;20045;-78
2022/01/30 07:36:36;;;;;;;0.70;0.70;;;;;;;4.26;100.00;100854.28;5007799;28;20069;-78
2022/01/30 07:39:11;;;;;;;0.70;0.70;;;;;;;4.30;100.00;100816.13;5009973;28;20045;-79
2022/01/30 07:41:45;;;;;;;0.60;0.60;;;;;;;4.25;100.00;100806.88;5008937;28;20049;-80
2022/01/30 07:44:17;;;;;;;0.60;0.60;;;;;;;4.25;100.00;100816.81;5002606;28;20056;-78
2022/01/30 07:46:50;;;;;;;0.63;0.63;;;;;;;4.25;100.00;100843.75;5008390;28;20042;-78
2022/01/30 07:49:24;;;;;;;0.60;0.60;;;;;;;4.25;100.00;100844.59;5014491;28;20514;-79
2022/01/30 07:51:57;;;;;;;0.60;0.60;;;;;;;4.24;100.00;100851.03;5012510;28;20046;-78
2022/01/30 07:54:32;;;;;;;0.70;0.70;;;;;;;4.19;100.00;100860.88;5012545;28;20034;-78
2022/01/30 07:57:06;;;;;;;0.60;0.60;;;;;;;4.15;100.00;100871.28;5016672;28;20056;-79
2022/01/30 07:59:41;;;;;;;0.80;0.80;;;;;;;4.03;100.00;100902.75;5013908;28;20049;-78
2022/01/30 08:02:14;;;;;;;0.70;0.70;;;;;;;3.90;100.00;100868.78;5008088;28;20061;-79
2022/01/30 08:04:47;;;;;;;0.70;0.70;;;;;;;4.04;100.00;100877.47;5008509;28;20053;-78
2022/01/30 08:07:20;;;;;;;0.70;0.70;;;;;;;4.11;100.00;100883.56;5010882;28;20408;-78
2022/01/30 08:09:53;;;;;;;0.70;0.70;;;;;;;4.04;100.00;100869.38;5012339;28;20053;-78
2022/01/30 08:12:26;;;;;;;0.65;0.65;;;;;;;4.12;100.00;100873.63;5004752;28;20061;-77
2022/01/30 08:15:01;;;;;;;0.60;0.60;;;;;;;4.16;100.00;100899.03;5010850;28;20042;-78
2022/01/30 08:17:36;;;;;;;0.70;0.70;;;;;;;4.21;100.00;100905.38;5023665;28;20701;-78
2022/01/30 08:20:11;;;;;;;0.50;0.50;;;;;;;4.23;100.00;100875.50;5010138;28;20049;-78
2022/01/30 08:22:46;;;;;;;0.50;0.50;;;;;;;4.30;100.00;100896.97;5013048;28;20418;-78
2022/01/30 08:25:15;;;;;;;0.60;0.60;;;;;;;4.31;100.00;100895.88;5007923;28;21889;-78
2022/01/30 08:27:50;;;;;;;0.60;0.60;;;;;;;4.32;100.00;100908.31;5010039;28;20410;-78
2022/01/30 08:30:27;;;;;;;0.47;0.47;;;;;;;4.31;100.00;100894.03;5005228;28;20064;-78
2022/01/30 08:33:00;;;;;;;0.50;0.50;;;;;;;4.37;100.00;100909.25;5015252;28;20056;-78
2022/01/30 08:35:34;;;;;;;0.50;0.50;;;;;;;4.34;100.00;100893.56;5007460;28;20057;-78
2022/01/30 08:38:07;;;;;;;0.50;0.50;;;;;;;4.45;100.00;100907.25;5010609;28;20045;-78
2022/01/30 08:40:40;;;;;;;0.52;0.52;;;;;;;4.43;100.00;100907.50;5004736;28;20053;-78
2022/01/30 08:43:14;;;;;;;0.50;0.50;;;;;;;4.45;100.00;100905.41;5030378;28;20056;-78
2022/01/30 08:45:49;;;;;;;0.50;0.50;;;;;;;4.50;100.00;100916.31;5012314;28;20536;-78
2022/01/30 08:48:22;;;;;;;0.40;0.40;;;;;;;4.56;100.00;100945.00;5016290;28;20050;-78
2022/01/30 08:50:56;;;;;;;0.40;0.40;;;;;;;4.53;100.00;100933.88;5009099;28;20061;-78
2022/01/30 08:53:29;;;;;;;0.50;0.50;;;;;;;4.57;100.00;100926.94;5012852;28;20524;-77
2022/01/30 08:56:02;;;;;;;0.43;0.43;;;;;;;4.56;100.00;100949.59;5013151;28;20041;-78
2022/01/30 08:58:35;;;;;;;0.50;0.50;;;;;;;4.53;100.00;100958.13;5012027;28;20054;-78
2022/01/30 09:01:12;;;;;;;0.40;0.40;;;;;;;4.51;100.00;100955.66;5008240;28;20501;-78
2022/01/30 09:03:40;;;;;;;0.40;0.40;;;;;;;4.56;100.00;100969.28;5009683;28;20038;-79
2022/01/30 09:06:13;;;;;;;0.43;0.43;;;;;;;4.59;100.00;101017.31;5002423;28;20046;-79
2022/01/30 09:08:42;;;;;;;0.50;0.50;;;;;;;4.57;100.00;100979.00;5009621;28;20057;-79
2022/01/30 09:11:15;;;;;;;0.40;0.40;;;;;;;4.59;100.00;100987.66;5007036;28;20057;-78
2022/01/30 09:13:43;;;;;;;0.40;0.40;;;;;;;4.59;100.00;100990.38;5005084;28;20045;-79
2022/01/30 09:16:18;;;;;;;0.40;0.40;;;;;;;4.56;100.00;100992.72;5012678;28;20046;-77
2022/01/30 09:18:46;;;;;;;0.40;0.40;;;;;;;4.56;100.00;101003.50;5007389;28;20046;-78
2022/01/30 09:21:21;;;;;;;0.40;0.40;;;;;;;4.50;100.00;100999.84;5008846;28;20060;-79
2022/01/30 09:23:54;;;;;;;0.45;0.45;;;;;;;4.58;100.00;101031.88;5022720;28;20054;-78
2022/01/30 09:26:27;;;;;;;0.43;0.43;;;;;;;4.60;100.00;101013.59;5003170;28;20049;-78
2022/01/30 09:28:55;;;;;;;0.40;0.40;;;;;;;4.64;100.00;101037.38;5017246;28;20056;-80
2022/01/30 09:31:25;;;;;;;0.30;0.30;;;;;;;4.64;100.00;101042.75;5006559;28;20052;-77
2022/01/30 09:33:58;;;;;;;0.40;0.40;;;;;;;4.65;100.00;101039.03;5008139;28;20058;-80
2022/01/30 09:36:31;;;;;;;0.40;0.40;;;;;;;4.74;100.00;101053.81;5008248;28;20049;-78
2022/01/30 09:39:05;;;;;;;0.40;0.40;;;;;;;4.72;100.00;101055.91;5024524;28;20053;-78
2022/01/30 09:41:39;;;;;;;0.30;0.30;;;;;;;4.67;100.00;101075.47;5005665;28;20058;-77
2022/01/30 09:44:12;;;;;;;0.40;0.40;;;;;;;4.72;100.00;101080.16;5024289;28;20049;-79
2022/01/30 09:46:47;;;;;;;0.40;0.40;;;;;;;4.69;100.00;101088.72;5008112;28;20406;-80
2022/01/30 09:49:23;;;;;;;0.40;0.40;;;;;;;4.72;100.00;101075.63;5010714;28;20050;-81
2022/01/30 09:51:57;;;;;;;0.30;0.30;;;;;;;4.73;100.00;101082.63;5006534;28;20053;-79
2022/01/30 09:54:30;;;;;;;0.40;0.40;;;;;;;4.75;100.00;101087.78;5012142;28;20057;-77
2022/01/30 09:57:04;;;;;;;0.40;0.40;;;;;;;4.75;100.00;101109.38;5008142;28;20483;-78
2022/01/30 09:59:37;;;;;;;0.40;0.40;;;;;;;4.82;100.00;101107.41;5006912;28;20042;-78
2022/01/30 10:02:12;;;;;;;0.30;0.30;;;;;;;4.79;100.00;101105.16;5008932;28;20050;-79
2022/01/30 10:04:46;;;;;;;0.40;0.40;;;;;;;4.81;100.00;101119.25;5004169;28;20041;-79
2022/01/30 10:07:21;;;;;;;0.45;0.45;;;;;;;4.82;100.00;101095.78;5039020;28;20421;-78
2022/01/30 10:09:50;;;;;;;0.35;0.35;;;;;;;4.79;100.00;101115.94;5005501;28;20057;-77
2022/01/30 10:12:20;;;;;;;0.30;0.30;;;;;;;4.77;100.00;101085.69;5007842;28;20495;-79
2022/01/30 10:14:59;;;;;;;0.40;0.40;;;;;;;4.72;100.00;101093.66;5005158;28;20057;-79
2022/01/30 10:17:34;;;;;;;0.40;0.40;;;;;;;4.81;100.00;101123.81;5022884;28;20049;-77
2022/01/30 10:20:11;;;;;;;0.35;0.35;;;;;;;4.77;100.00;101118.88;5007386;28;20061;-79
2022/01/30 10:22:50;;;;;;;0.40;0.40;;;;;;;4.77;100.00;101169.28;5019516;28;20054;-78
2022/01/30 10:25:20;;;;;;;0.40;0.40;;;;;;;4.81;100.00;101118.44;5007747;28;20061;-77
2022/01/30 10:28:06;;;;;;;0.40;0.40;;;;;;;4.79;100.00;101134.81;5009668;28;20060;-77
2022/01/30 10:30:41;;;;;;;0.40;0.40;;;;;;;4.81;100.00;101126.53;5009678;28;20062;-77
2022/01/30 10:33:18;;;;;;;0.35;0.35;;;;;;;4.73;100.00;101130.34;5008982;28;20589;-78
2022/01/30 10:35:53;;;;;;;0.40;0.40;;;;;;;4.73;100.00;101133.88;5010247;28;20137;-78
2022/01/30 10:38:30;;;;;;;0.40;0.40;;;;;;;4.66;100.00;101126.94;5014055;28;20061;-78
2022/01/30 10:41:12;;;;;;;0.40;0.40;;;;;;;4.69;100.00;101154.25;5014496;28;20057;-77
2022/01/30 10:43:52;;;;;;;0.30;0.30;;;;;;;4.71;100.00;101162.09;5023676;28;20857;-78
2022/01/30 10:46:28;;;;;;;0.30;0.30;;;;;;;4.70;100.00;101147.81;5022258;28;20664;-78
2022/01/30 10:49:00;;;;;;;0.40;0.40;;;;;;;4.65;100.00;101155.75;5010282;28;20495;-77
2022/01/30 10:51:33;;;;;;;0.30;0.30;;;;;;;4.71;100.00;101175.59;5012340;28;20053;-78
2022/01/30 10:54:09;;;;;;;0.40;0.40;;;;;;;4.77;100.00;101169.28;5005237;28;20045;-78
2022/01/30 10:56:42;;;;;;;0.30;0.30;;;;;;;4.76;100.00;101160.38;5011811;28;20471;-78
2022/01/30 10:59:17;;;;;;;0.35;0.35;;;;;;;4.68;100.00;101178.75;5024029;28;20057;-77
2022/01/30 11:01:52;;;;;;;0.40;0.40;;;;;;;4.69;100.00;101172.31;5010480;28;20053;-78
2022/01/30 11:04:23;;;;;;;0.32;0.32;;;;;;;4.69;100.00;101180.41;5027150;28;20506;-78
2022/01/30 11:06:59;;;;;;;0.30;0.30;;;;;;;4.64;100.00;101180.25;5044418;28;20410;-78
2022/01/30 11:09:36;;;;;;;0.30;0.30;;;;;;;4.70;100.00;101184.75;5010665;28;20037;-78
2022/01/30 11:12:08;;;;;;;0.30;0.30;;;;;;;4.70;100.00;101192.84;5016411;28;20093;-77
2022/01/30 11:14:54;;;;;;;0.40;0.40;;;;;;;4.74;100.00;101165.19;5021858;28;20050;-81
2022/01/30 11:17:23;;;;;;;0.30;0.30;;;;;;;4.73;100.00;101179.69;5023401;28;20065;-79
2022/01/30 11:19:59;;;;;;;0.30;0.30;;;;;;;4.75;100.00;101182.16;5026727;28;20446;-78
2022/01/30 11:22:34;;;;;;;0.30;0.30;;;;;;;4.69;100.00;101202.78;5006824;28;20060;-78
2022/01/30 11:25:08;;;;;;;0.30;0.30;;;;;;;4.72;100.00;101188.88;5005033;28;20045;-78
2022/01/30 11:27:37;;;;;;;0.40;0.40;;;;;;;4.70;100.00;101193.66;5010081;28;20057;-78
2022/01/30 11:30:07;;;;;;;0.30;0.30;;;;;;;4.66;100.00;101162.81;5009563;28;20047;-78
2022/01/30 11:32:35;;;;;;;0.30;0.30;;;;;;;4.69;100.00;101210.88;5008019;28;20050;-77
2022/01/30 11:35:11;;;;;;;0.30;0.30;;;;;;;4.77;100.00;101213.25;5009732;28;20402;-77
2022/01/30 11:37:45;;;;;;;0.30;0.30;;;;;;;4.70;100.00;101207.13;5004472;28;20070;-78
2022/01/30 11:40:20;;;;;;;0.30;0.30;;;;;;;4.74;100.00;101202.13;5010166;28;20061;-79
2022/01/30 11:42:53;;;;;;;0.40;0.40;;;;;;;4.73;100.00;101228.22;5011022;28;20042;-78
2022/01/30 11:45:28;;;;;;;0.30;0.30;;;;;;;4.79;100.00;101206.81;5040968;28;20049;-79
2022/01/30 11:47:58;;;;;;;0.30;0.30;;;;;;;4.79;100.00;101231.09;5012572;28;20483;-78
2022/01/30 11:50:34;;;;;;;0.30;0.30;;;;;;;4.79;100.00;101220.28;5009886;28;20038;-78
2022/01/30 11:53:05;;;;;;;0.40;0.40;;;;;;;4.72;100.00;101223.91;5035662;28;20050;-78
2022/01/30 11:55:49;;;;;;;0.30;0.30;;;;;;;4.77;100.00;101215.94;5007555;28;20041;-78
2022/01/30 11:58:47;;;;;;;0.30;0.30;;;;;;;4.89;100.00;101224.09;5000633;28;20053;-78
2022/01/30 12:01:38;;;;;;;0.30;0.30;;;;;;;4.84;100.00;101234.75;5022830;28;20054;-78
2022/01/30 12:04:14;;;;;;;0.30;0.30;;;;;;;4.95;100.00;101243.94;5006668;28;20058;-77
2022/01/30 12:06:50;;;;;;;0.30;0.30;;;;;;;4.98;100.00;101245.34;5010782;28;20057;-79
2022/01/30 12:09:27;;;;;;;0.40;0.40;;;;;;;4.90;100.00;101258.13;5004455;28;20061;-78
2022/01/30 12:12:03;;;;;;;0.40;0.40;;;;;;;4.94;100.00;101267.41;5009234;28;20072;-78
2022/01/30 12:14:53;;;;;;;0.40;0.40;;;;;;;4.89;100.00;101251.06;5023552;28;20422;-77
2022/01/30 12:17:49;;;;;;;0.30;0.30;;;;;;;4.96;100.00;101266.31;5009490;28;20049;-77
2022/01/30 12:20:23;;;;;;;0.40;0.40;;;;;;;4.92;100.00;101268.69;5009941;28;20054;-79
2022/01/30 12:22:58;;;;;;;0.30;0.30;;;;;;;4.88;100.00;101257.50;5008585;28;20057;-77
2022/01/30 12:25:38;;;;;;;0.40;0.40;;;;;;;4.89;100.00;101258.34;4999135;28;20056;-78
2022/01/30 12:28:13;;;;;;;0.32;0.32;;;;;;;4.85;100.00;101270.63;5036926;28;20050;-78
2022/01/30 12:30:50;;;;;;;0.40;0.40;;;;;;;4.77;100.00;101255.59;5009980;28;20037;-77
2022/01/30 12:33:41;;;;;;;0.30;0.30;;;;;;;4.69;100.00;101270.19;5010316;28;20466;-79
2022/01/30 12:36:22;;;;;;;0.30;0.30;;;;;;;4.68;100.00;101267.72;5001510;28;20049;-78
2022/01/30 12:38:58;;;;;;;0.30;0.30;;;;;;;4.77;100.00;101252.88;5015766;28;20810;-77
2022/01/30 12:41:33;;;;;;;0.45;0.45;;;;;;;4.84;100.00;101258.19;5001356;28;21354;-78
2022/01/30 12:44:08;;;;;;;0.35;0.35;;;;;;;4.81;100.00;101251.38;4993566;28;20050;-78